Holdrege, Nebraska
Current Conditions -  °F | °C
As of 11:35 PM on Wednesday 17 Dec 2014 (Local Time) from KHDE Reporting Station
Overcast Overcast  
Wind Chill: 24°   Ceiling: 1300
Heat Index: 24°   Visibility: 10mi
Dew Point: 21°   Wind: 3mph
Humidity: 86%   Direction: 130°SE
Pressure: 30.15"   Gusts: NA
Location:  40.44°N, 99.37°W
Report Text: KHDE 180535Z AUTO 13003KT 10SM OVC013 M04/M06 A3015 RMK AO2 T10421062
Loading
Personal Weather Stations






























Interactive Weather Map New forecast layout! Learn more

10-Day Weather Forecast

Advertisements
Track Severe Weather on mobile